Αναφορές METAR Αεροδρομίων

 

LGTS - THESSALONIKI - GREECE
Ενημερώθηκε: 17/04/2024 18:20
Μερικώς νεφελώδης
Μερικώς νεφελώδης
 Ανεμος από ΝΝΑ
Ανεμος: ΝΝΑ 30 km/h, Ριπή: 48 km/h
Θερμοκρασία: 24°C
Σημ. Δρόσου: 11°C
Υγρασία: 44%
Βαρόμετρο: 995 hPa
Clouds: Μερικώς νεφελώδης
Visibility: 10 km
Cloud details: Μερικώς νεφελώδης 762 m
2024/04/17 15:20 LGTS 171520Z 15016G26KT 9999 SCT025 24/11 Q0995 NOSIG
LGLR - LARTISA - GREECE
Ενημερώθηκε: 17/04/2024 16:50
NOT Current
Μερικώς νεφελώδης
Μερικώς νεφελώδης
 Ανεμος από Ν
Ανεμος: Ν 22 km/h
Θερμοκρασία: 27°C
Σημ. Δρόσου: 8°C
Υγρασία: 30%
Βαρόμετρο: 997 hPa
Clouds: Μερικώς νεφελώδης
Visibility: 10 km
Cloud details: Αραιές Νεφώσεις 1067 m
Μερικώς νεφελώδης 2438 m
2024/04/17 13:50 LGLR 171350Z 17012KT 9999 FEW035 SCT080 27/08 Q0997 RMK BKN180 BLU
 
LGKZ - KOZANI - GREECE
Ενημερώθηκε: 17/04/2024 18:50
Ασθενής βροχή
Ασθενής βροχή
 Ανεμος από Δ
Ανεμος: Δ 22 km/h
Θερμοκρασία: 16°C
Σημ. Δρόσου: 9°C
Υγρασία: 63%
Βαρόμετρο: 999 hPa
Περίληψη: Ασθενής βροχή
2024/04/17 15:50 LGKZ 171550Z AUTO 26012KT 240V300 //// -RA ////// 16/09 Q0999 RE//
LGKV - KAVALA - GREECE
Ενημερώθηκε: 17/04/2024 18:50
Σχεδόν νεφελώδης
Σχεδόν νεφελώδης
 Ανεμος από ΔΒΔ
Ανεμος: ΔΒΔ 13 km/h
Θερμοκρασία: 20°C
Σημ. Δρόσου: 12°C
Υγρασία: 60%
Βαρόμετρο: 998 hPa
Clouds: Σχεδόν νεφελώδης
Visibility: 10 km
Cloud details: Αραιές Νεφώσεις 610 m
Μερικώς νεφελώδης 914 m
Σχεδόν νεφελώδης 2134 m
2024/04/17 15:50 LGKV 171550Z 30007KT 9999 FEW020 SCT030 BKN070 20/12 Q0998
 
LGIO - IOANNINA - GREECE
Ενημερώθηκε: 17/04/2024 18:50
Σχεδόν νεφελώδης
Σχεδόν νεφελώδης
 Ανεμος από ΒΔ
Ανεμος: ΒΔ 13 km/h
Θερμοκρασία: 16°C
Σημ. Δρόσου: 12°C
Υγρασία: 77%
Βαρόμετρο: 1001 hPa
Clouds: Σχεδόν νεφελώδης
Visibility: 10 km
Cloud details: Σχεδόν νεφελώδης 762 m
2024/04/17 15:50 LGIO 171550Z 32007KT 9999 BKN025 16/12 Q1001
LGBL - BOLOS - GREECE
Ενημερώθηκε: 17/04/2024 18:50
Αραιές Νεφώσεις
Αραιές Νεφώσεις
 Ανεμος από ΒΑ
Ανεμος: ΒΑ 9 km/h
Θερμοκρασία: 23°C
Σημ. Δρόσου: 15°C
Υγρασία: 61%
Βαρόμετρο: 997 hPa
Clouds: Αραιές Νεφώσεις
Visibility: 10 km
Cloud details: Αραιές Νεφώσεις 2438 m
2024/04/17 15:50 LGBL 171550Z 04005KT 9999 FEW080 23/15 Q0997
 
LGMT - MITILINI - GREECE
Ενημερώθηκε: 17/04/2024 18:50
Αραιές Νεφώσεις
Αραιές Νεφώσεις
 Ανεμος από Ν
Ανεμος: Ν 20 km/h
Θερμοκρασία: 24°C
Σημ. Δρόσου: 14°C
Υγρασία: 54%
Βαρόμετρο: 1001 hPa
Clouds: Αραιές Νεφώσεις
Visibility: 10 km
Cloud details: Αραιές Νεφώσεις 762 m
2024/04/17 15:50 LGMT 171550Z 19011KT 150V230 9999 FEW025 24/14 Q1001
LGAV - ATHENS - GREECE
Ενημερώθηκε: 17/04/2024 18:50
Αραιές Νεφώσεις
Αραιές Νεφώσεις
 Ανεμος από ΑΝΑ
Ανεμος: ΑΝΑ 15 km/h
Θερμοκρασία: 22°C
Σημ. Δρόσου: 12°C
Υγρασία: 53%
Βαρόμετρο: 999 hPa
Clouds: Αραιές Νεφώσεις
Visibility: 10 km
Cloud details: Αραιές Νεφώσεις 914 m
2024/04/17 15:50 LGAV 171550Z 11008KT 9999 FEW030 22/12 Q0999 NOSIG
 
LGRP - RODOS - GREECE
Ενημερώθηκε: 17/04/2024 18:50
Αραιές Νεφώσεις
Αραιές Νεφώσεις
 Ανεμος από ΑΝΑ
Ανεμος: ΑΝΑ 20 km/h, Ριπή: 41 km/h
Θερμοκρασία: 23°C
Σημ. Δρόσου: 12°C
Υγρασία: 50%
Βαρόμετρο: 1001 hPa
Clouds: Αραιές Νεφώσεις
Visibility: 10 km
Cloud details: Αραιές Νεφώσεις 610 m
2024/04/17 15:50 LGRP 171550Z 11011G22KT 030V190 9999 FEW020 23/12 Q1001 WS ALL RWY NOSIG
LGIR - HRAKLIO/KRITI - GREECE
Ενημερώθηκε: 17/04/2024 18:50
Αραιές Νεφώσεις
Αραιές Νεφώσεις
 Ανεμος από Ν
Ανεμος: Ν 11 km/h
Θερμοκρασία: 24°C
Σημ. Δρόσου: 12°C
Υγρασία: 47%
Βαρόμετρο: 999 hPa
Clouds: Αραιές Νεφώσεις
Visibility: 10 km
Cloud details: Αραιές Νεφώσεις 610 m
2024/04/17 15:50 LGIR 171550Z 19006KT 9999 FEW020 24/12 Q0999 NOSIG
 
LGMK - MIKONOS - GREECE
Ενημερώθηκε: 17/04/2024 18:50
Αραιές Νεφώσεις
Αραιές Νεφώσεις
 Ανεμος από ΝΑ
Ανεμος: ΝΑ 22 km/h, Ριπή: 41 km/h
Θερμοκρασία: 20°C
Σημ. Δρόσου: 13°C
Υγρασία: 64%
Βαρόμετρο: 999 hPa
Clouds: Αραιές Νεφώσεις
Visibility: 10 km
Cloud details: Αραιές Νεφώσεις 610 m
2024/04/17 15:50 LGMK 171550Z 13012G22KT 9999 FEW020 20/13 Q0999
LGKR - KERKIRA - GREECE
Ενημερώθηκε: 17/04/2024 18:50
Αραιές Νεφώσεις
Αραιές Νεφώσεις
 Ανεμος από Δ
Ανεμος: Δ 19 km/h
Θερμοκρασία: 20°C
Σημ. Δρόσου: 13°C
Υγρασία: 64%
Βαρόμετρο: 1000 hPa
Clouds: Αραιές Νεφώσεις
Visibility: 10 km
Cloud details: Αραιές Νεφώσεις 610 m
2024/04/17 15:50 LGKR 171550Z 26010KT 9999 FEW020 20/13 Q1000 NOSIG